sensor_id;sensor_type;location;lat;lon;timestamp;pressure;altitude;pressure_sealevel;temperature
65600;BMP280;52272;-29.642;-50.764;2022-10-16T00:00:21;101450.13;;;21.20
65600;BMP280;52272;-29.642;-50.764;2022-10-16T00:02:51;101443.81;;;21.51
65600;BMP280;52272;-29.642;-50.764;2022-10-16T00:05:24;101442.56;;;21.46
65600;BMP280;52272;-29.642;-50.764;2022-10-16T00:07:54;101439.81;;;21.24
65600;BMP280;52272;-29.642;-50.764;2022-10-16T00:10:25;101437.13;;;21.35
65600;BMP280;52272;-29.642;-50.764;2022-10-16T00:12:55;101436.19;;;21.49
65600;BMP280;52272;-29.642;-50.764;2022-10-16T00:15:26;101447.09;;;21.82
65600;BMP280;52272;-29.642;-50.764;2022-10-16T00:17:56;101446.09;;;22.29
65600;BMP280;52272;-29.642;-50.764;2022-10-16T00:20:26;101444.06;;;22.57
65600;BMP280;52272;-29.642;-50.764;2022-10-16T00:22:56;101453.78;;;23.03
65600;BMP280;52272;-29.642;-50.764;2022-10-16T00:25:27;101441.63;;;23.15
65600;BMP280;52272;-29.642;-50.764;2022-10-16T00:27:57;101442.69;;;23.01
65600;BMP280;52272;-29.642;-50.764;2022-10-16T00:30:26;101445.59;;;23.14
65600;BMP280;52272;-29.642;-50.764;2022-10-16T00:32:59;101435.66;;;23.57
65600;BMP280;52272;-29.642;-50.764;2022-10-16T00:35:31;101442.00;;;23.36
65600;BMP280;52272;-29.642;-50.764;2022-10-16T00:38:01;101434.16;;;22.65
65600;BMP280;52272;-29.642;-50.764;2022-10-16T00:40:31;101437.91;;;22.45
65600;BMP280;52272;-29.642;-50.764;2022-10-16T00:43:02;101436.50;;;21.95
65600;BMP280;52272;-29.642;-50.764;2022-10-16T00:45:32;101437.91;;;21.41
65600;BMP280;52272;-29.642;-50.764;2022-10-16T00:48:01;101422.47;;;21.00
65600;BMP280;52272;-29.642;-50.764;2022-10-16T00:50:33;101415.75;;;20.84
65600;BMP280;52272;-29.642;-50.764;2022-10-16T00:53:04;101415.09;;;20.58
65600;BMP280;52272;-29.642;-50.764;2022-10-16T00:55:36;101412.59;;;20.49
65600;BMP280;52272;-29.642;-50.764;2022-10-16T00:58:10;101415.34;;;20.55
65600;BMP280;52272;-29.642;-50.764;2022-10-16T01:00:41;101421.09;;;20.73
65600;BMP280;52272;-29.642;-50.764;2022-10-16T01:03:27;101432.84;;;21.07
65600;BMP280;52272;-29.642;-50.764;2022-10-16T01:18:21;101421.66;;;20.88
65600;BMP280;52272;-29.642;-50.764;2022-10-16T01:20:59;101421.31;;;21.17
65600;BMP280;52272;-29.642;-50.764;2022-10-16T01:23:42;101414.63;;;21.07
65600;BMP280;52272;-29.642;-50.764;2022-10-16T01:29:34;101426.94;;;21.08
65600;BMP280;52272;-29.642;-50.764;2022-10-16T01:38:04;101404.34;;;21.22
65600;BMP280;52272;-29.642;-50.764;2022-10-16T01:40:39;101397.34;;;21.05
65600;BMP280;52272;-29.642;-50.764;2022-10-16T01:43:33;101397.56;;;20.96
65600;BMP280;52272;-29.642;-50.764;2022-10-16T01:46:05;101410.47;;;20.64
65600;BMP280;52272;-29.642;-50.764;2022-10-16T01:48:38;101413.75;;;20.79
65600;BMP280;52272;-29.642;-50.764;2022-10-16T01:51:12;101415.94;;;20.70
65600;BMP280;52272;-29.642;-50.764;2022-10-16T01:53:46;101401.72;;;20.44
65600;BMP280;52272;-29.642;-50.764;2022-10-16T01:56:19;101394.94;;;20.59
65600;BMP280;52272;-29.642;-50.764;2022-10-16T01:58:58;101391.31;;;20.31
65600;BMP280;52272;-29.642;-50.764;2022-10-16T02:01:33;101389.81;;;20.30
65600;BMP280;52272;-29.642;-50.764;2022-10-16T02:04:49;101388.97;;;20.44
65600;BMP280;52272;-29.642;-50.764;2022-10-16T02:07:18;101389.34;;;21.38
65600;BMP280;52272;-29.642;-50.764;2022-10-16T02:09:49;101378.69;;;21.18
65600;BMP280;52272;-29.642;-50.764;2022-10-16T02:12:28;101372.53;;;20.59
65600;BMP280;52272;-29.642;-50.764;2022-10-16T02:14:58;101377.84;;;20.95
65600;BMP280;52272;-29.642;-50.764;2022-10-16T02:17:29;101393.06;;;21.73
65600;BMP280;52272;-29.642;-50.764;2022-10-16T02:19:59;101398.00;;;21.85
65600;BMP280;52272;-29.642;-50.764;2022-10-16T02:22:36;101381.50;;;21.56
65600;BMP280;52272;-29.642;-50.764;2022-10-16T02:25:30;101374.50;;;22.43
65600;BMP280;52272;-29.642;-50.764;2022-10-16T02:28:30;101386.88;;;22.33
65600;BMP280;52272;-29.642;-50.764;2022-10-16T02:31:05;101375.53;;;22.18
65600;BMP280;52272;-29.642;-50.764;2022-10-16T02:33:41;101375.66;;;22.69
65600;BMP280;52272;-29.642;-50.764;2022-10-16T02:36:13;101381.31;;;22.66
65600;BMP280;52272;-29.642;-50.764;2022-10-16T02:38:42;101384.75;;;22.72
65600;BMP280;52272;-29.642;-50.764;2022-10-16T02:41:14;101388.31;;;23.01
65600;BMP280;52272;-29.642;-50.764;2022-10-16T02:43:44;101381.06;;;23.20
65600;BMP280;52272;-29.642;-50.764;2022-10-16T02:46:21;101377.25;;;22.99
65600;BMP280;52272;-29.642;-50.764;2022-10-16T02:48:51;101364.47;;;22.83
65600;BMP280;52272;-29.642;-50.764;2022-10-16T02:51:21;101354.41;;;23.13
65600;BMP280;52272;-29.642;-50.764;2022-10-16T02:53:51;101354.88;;;23.17
65600;BMP280;52272;-29.642;-50.764;2022-10-16T02:56:22;101344.16;;;22.95
65600;BMP280;52272;-29.642;-50.764;2022-10-16T02:58:53;101344.78;;;23.07
65600;BMP280;52272;-29.642;-50.764;2022-10-16T03:01:23;101341.44;;;23.30
65600;BMP280;52272;-29.642;-50.764;2022-10-16T03:03:54;101338.63;;;23.06
65600;BMP280;52272;-29.642;-50.764;2022-10-16T03:06:24;101330.88;;;22.81
65600;BMP280;52272;-29.642;-50.764;2022-10-16T03:08:54;101334.28;;;23.27
65600;BMP280;52272;-29.642;-50.764;2022-10-16T03:11:24;101331.94;;;23.13
65600;BMP280;52272;-29.642;-50.764;2022-10-16T03:13:54;101333.28;;;22.95
65600;BMP280;52272;-29.642;-50.764;2022-10-16T03:16:24;101327.34;;;22.91
65600;BMP280;52272;-29.642;-50.764;2022-10-16T03:18:55;101334.59;;;23.18
65600;BMP280;52272;-29.642;-50.764;2022-10-16T03:21:25;101331.84;;;22.83
65600;BMP280;52272;-29.642;-50.764;2022-10-16T03:23:55;101331.38;;;22.74
65600;BMP280;52272;-29.642;-50.764;2022-10-16T03:26:25;101324.56;;;22.57
65600;BMP280;52272;-29.642;-50.764;2022-10-16T03:28:55;101340.38;;;22.53
65600;BMP280;52272;-29.642;-50.764;2022-10-16T03:31:25;101348.44;;;22.01
65600;BMP280;52272;-29.642;-50.764;2022-10-16T03:33:57;101358.56;;;22.06
65600;BMP280;52272;-29.642;-50.764;2022-10-16T03:36:27;101356.34;;;21.94
65600;BMP280;52272;-29.642;-50.764;2022-10-16T03:38:56;101346.47;;;21.58
65600;BMP280;52272;-29.642;-50.764;2022-10-16T03:41:27;101346.44;;;21.36
65600;BMP280;52272;-29.642;-50.764;2022-10-16T03:43:57;101337.13;;;21.59
65600;BMP280;52272;-29.642;-50.764;2022-10-16T03:46:27;101328.25;;;21.75
65600;BMP280;52272;-29.642;-50.764;2022-10-16T03:48:58;101320.59;;;21.73
65600;BMP280;52272;-29.642;-50.764;2022-10-16T03:51:28;101304.06;;;21.88
65600;BMP280;52272;-29.642;-50.764;2022-10-16T03:53:58;101301.09;;;21.86
65600;BMP280;52272;-29.642;-50.764;2022-10-16T03:56:29;101293.44;;;20.38
65600;BMP280;52272;-29.642;-50.764;2022-10-16T03:58:59;101303.53;;;20.02
65600;BMP280;52272;-29.642;-50.764;2022-10-16T04:01:32;101290.91;;;19.88
65600;BMP280;52272;-29.642;-50.764;2022-10-16T04:04:02;101292.25;;;20.45
65600;BMP280;52272;-29.642;-50.764;2022-10-16T04:06:32;101289.91;;;19.85
65600;BMP280;52272;-29.642;-50.764;2022-10-16T04:09:02;101270.91;;;19.74
65600;BMP280;52272;-29.642;-50.764;2022-10-16T04:11:33;101266.72;;;20.09
65600;BMP280;52272;-29.642;-50.764;2022-10-16T04:14:03;101265.47;;;20.52
65600;BMP280;52272;-29.642;-50.764;2022-10-16T04:16:33;101262.66;;;21.11
65600;BMP280;52272;-29.642;-50.764;2022-10-16T04:19:04;101269.06;;;21.24
65600;BMP280;52272;-29.642;-50.764;2022-10-16T04:21:34;101272.47;;;22.07
65600;BMP280;52272;-29.642;-50.764;2022-10-16T04:24:04;101261.34;;;21.99
65600;BMP280;52272;-29.642;-50.764;2022-10-16T04:26:35;101263.13;;;21.86
65600;BMP280;52272;-29.642;-50.764;2022-10-16T04:29:04;101248.84;;;21.80
65600;BMP280;52272;-29.642;-50.764;2022-10-16T04:31:35;101236.44;;;22.01
65600;BMP280;52272;-29.642;-50.764;2022-10-16T04:34:05;101226.06;;;22.05
65600;BMP280;52272;-29.642;-50.764;2022-10-16T04:36:36;101219.94;;;21.99
65600;BMP280;52272;-29.642;-50.764;2022-10-16T04:39:06;101206.09;;;22.54
65600;BMP280;52272;-29.642;-50.764;2022-10-16T04:41:39;101204.38;;;22.51
65600;BMP280;52272;-29.642;-50.764;2022-10-16T04:44:09;101200.53;;;22.35
65600;BMP280;52272;-29.642;-50.764;2022-10-16T04:46:38;101190.88;;;22.40
65600;BMP280;52272;-29.642;-50.764;2022-10-16T04:49:09;101190.72;;;22.96
65600;BMP280;52272;-29.642;-50.764;2022-10-16T04:51:39;101200.50;;;22.76
65600;BMP280;52272;-29.642;-50.764;2022-10-16T04:54:10;101196.38;;;22.69
65600;BMP280;52272;-29.642;-50.764;2022-10-16T04:56:40;101183.72;;;23.06
65600;BMP280;52272;-29.642;-50.764;2022-10-16T04:59:17;101174.94;;;22.95
65600;BMP280;52272;-29.642;-50.764;2022-10-16T05:01:48;101158.16;;;22.91
65600;BMP280;52272;-29.642;-50.764;2022-10-16T05:04:18;101150.75;;;22.91
65600;BMP280;52272;-29.642;-50.764;2022-10-16T05:06:48;101131.91;;;22.35
65600;BMP280;52272;-29.642;-50.764;2022-10-16T05:09:19;101116.75;;;21.64
65600;BMP280;52272;-29.642;-50.764;2022-10-16T05:11:49;101100.09;;;20.83
65600;BMP280;52272;-29.642;-50.764;2022-10-16T05:14:20;101098.09;;;21.33
65600;BMP280;52272;-29.642;-50.764;2022-10-16T05:16:50;101095.06;;;20.10
65600;BMP280;52272;-29.642;-50.764;2022-10-16T05:19:21;101078.69;;;21.13
65600;BMP280;52272;-29.642;-50.764;2022-10-16T05:21:56;101085.75;;;21.38
65600;BMP280;52272;-29.642;-50.764;2022-10-16T05:24:27;101075.59;;;22.06
65600;BMP280;52272;-29.642;-50.764;2022-10-16T05:26:57;101082.03;;;22.03
65600;BMP280;52272;-29.642;-50.764;2022-10-16T05:29:26;101083.50;;;22.04
65600;BMP280;52272;-29.642;-50.764;2022-10-16T05:31:57;101092.22;;;21.91
65600;BMP280;52272;-29.642;-50.764;2022-10-16T05:34:27;101093.84;;;22.11
65600;BMP280;52272;-29.642;-50.764;2022-10-16T05:36:58;101093.19;;;21.94
65600;BMP280;52272;-29.642;-50.764;2022-10-16T05:39:27;101088.00;;;21.96
65600;BMP280;52272;-29.642;-50.764;2022-10-16T05:41:58;101090.06;;;22.19
65600;BMP280;52272;-29.642;-50.764;2022-10-16T05:44:28;101080.91;;;22.57
65600;BMP280;52272;-29.642;-50.764;2022-10-16T05:46:59;101066.97;;;22.42
65600;BMP280;52272;-29.642;-50.764;2022-10-16T05:49:29;101066.03;;;21.48
65600;BMP280;52272;-29.642;-50.764;2022-10-16T05:51:59;101083.69;;;22.52
65600;BMP280;52272;-29.642;-50.764;2022-10-16T05:54:29;101091.22;;;22.64
65600;BMP280;52272;-29.642;-50.764;2022-10-16T05:57:01;101087.81;;;22.23
65600;BMP280;52272;-29.642;-50.764;2022-10-16T05:59:32;101074.72;;;22.27
65600;BMP280;52272;-29.642;-50.764;2022-10-16T06:02:02;101069.38;;;22.51
65600;BMP280;52272;-29.642;-50.764;2022-10-16T06:04:32;101068.78;;;22.29
65600;BMP280;52272;-29.642;-50.764;2022-10-16T06:07:02;101078.56;;;22.37
65600;BMP280;52272;-29.642;-50.764;2022-10-16T06:09:33;101084.66;;;22.54
65600;BMP280;52272;-29.642;-50.764;2022-10-16T06:12:03;101075.91;;;22.32
65600;BMP280;52272;-29.642;-50.764;2022-10-16T06:14:33;101085.13;;;22.18
65600;BMP280;52272;-29.642;-50.764;2022-10-16T06:17:03;101069.97;;;22.68
65600;BMP280;52272;-29.642;-50.764;2022-10-16T06:19:35;101055.31;;;22.77
65600;BMP280;52272;-29.642;-50.764;2022-10-16T06:22:05;101045.59;;;22.63
65600;BMP280;52272;-29.642;-50.764;2022-10-16T06:24:35;101047.56;;;22.33
65600;BMP280;52272;-29.642;-50.764;2022-10-16T06:27:05;101057.72;;;23.04
65600;BMP280;52272;-29.642;-50.764;2022-10-16T06:29:36;101062.31;;;22.90
65600;BMP280;52272;-29.642;-50.764;2022-10-16T06:32:07;101061.03;;;22.73
65600;BMP280;52272;-29.642;-50.764;2022-10-16T06:34:38;101047.25;;;23.13
65600;BMP280;52272;-29.642;-50.764;2022-10-16T06:37:11;101046.78;;;23.33
65600;BMP280;52272;-29.642;-50.764;2022-10-16T06:39:42;101050.16;;;23.21
65600;BMP280;52272;-29.642;-50.764;2022-10-16T06:42:11;101044.88;;;23.04
65600;BMP280;52272;-29.642;-50.764;2022-10-16T06:44:41;101050.31;;;23.47
65600;BMP280;52272;-29.642;-50.764;2022-10-16T06:47:12;101061.47;;;23.43
65600;BMP280;52272;-29.642;-50.764;2022-10-16T06:49:42;101054.03;;;23.25
65600;BMP280;52272;-29.642;-50.764;2022-10-16T06:52:12;101054.50;;;23.05
65600;BMP280;52272;-29.642;-50.764;2022-10-16T06:54:42;101046.00;;;23.14
65600;BMP280;52272;-29.642;-50.764;2022-10-16T06:57:11;101051.28;;;23.07
65600;BMP280;52272;-29.642;-50.764;2022-10-16T06:59:42;101048.28;;;22.86
65600;BMP280;52272;-29.642;-50.764;2022-10-16T07:02:14;101049.66;;;22.98
65600;BMP280;52272;-29.642;-50.764;2022-10-16T07:04:44;101043.97;;;23.20
65600;BMP280;52272;-29.642;-50.764;2022-10-16T07:07:14;101046.84;;;23.04
65600;BMP280;52272;-29.642;-50.764;2022-10-16T07:09:45;101053.56;;;22.79
65600;BMP280;52272;-29.642;-50.764;2022-10-16T07:12:15;101051.06;;;22.81
65600;BMP280;52272;-29.642;-50.764;2022-10-16T07:14:46;101048.97;;;22.92
65600;BMP280;52272;-29.642;-50.764;2022-10-16T07:17:16;101056.91;;;22.67
65600;BMP280;52272;-29.642;-50.764;2022-10-16T07:19:46;101066.00;;;22.69
65600;BMP280;52272;-29.642;-50.764;2022-10-16T07:22:16;101065.25;;;22.69
65600;BMP280;52272;-29.642;-50.764;2022-10-16T07:24:47;101069.59;;;22.53
65600;BMP280;52272;-29.642;-50.764;2022-10-16T07:27:20;101083.81;;;22.30
65600;BMP280;52272;-29.642;-50.764;2022-10-16T07:29:53;101075.63;;;22.41
65600;BMP280;52272;-29.642;-50.764;2022-10-16T07:32:23;101082.75;;;22.44
65600;BMP280;52272;-29.642;-50.764;2022-10-16T07:34:56;101090.41;;;21.99
65600;BMP280;52272;-29.642;-50.764;2022-10-16T07:37:26;101063.47;;;21.72
65600;BMP280;52272;-29.642;-50.764;2022-10-16T07:39:58;101110.06;;;22.22
65600;BMP280;52272;-29.642;-50.764;2022-10-16T07:42:28;101103.34;;;21.77
65600;BMP280;52272;-29.642;-50.764;2022-10-16T07:44:59;101131.06;;;21.59
65600;BMP280;52272;-29.642;-50.764;2022-10-16T07:47:29;101140.63;;;21.76
65600;BMP280;52272;-29.642;-50.764;2022-10-16T07:49:59;101151.72;;;21.62
65600;BMP280;52272;-29.642;-50.764;2022-10-16T07:52:29;101160.16;;;21.42
65600;BMP280;52272;-29.642;-50.764;2022-10-16T07:54:59;101167.56;;;21.25
65600;BMP280;52272;-29.642;-50.764;2022-10-16T07:57:29;101176.91;;;21.57
65600;BMP280;52272;-29.642;-50.764;2022-10-16T07:59:59;101179.81;;;21.70
65600;BMP280;52272;-29.642;-50.764;2022-10-16T08:02:41;101178.09;;;21.61
65600;BMP280;52272;-29.642;-50.764;2022-10-16T08:05:11;101183.97;;;21.87
65600;BMP280;52272;-29.642;-50.764;2022-10-16T08:07:42;101181.59;;;22.19
65600;BMP280;52272;-29.642;-50.764;2022-10-16T08:10:17;101182.97;;;21.85
65600;BMP280;52272;-29.642;-50.764;2022-10-16T08:12:48;101180.22;;;21.96
65600;BMP280;52272;-29.642;-50.764;2022-10-16T08:15:19;101188.84;;;22.46
65600;BMP280;52272;-29.642;-50.764;2022-10-16T08:17:58;101188.84;;;22.46
65600;BMP280;52272;-29.642;-50.764;2022-10-16T08:20:29;101196.91;;;22.22
65600;BMP280;52272;-29.642;-50.764;2022-10-16T08:23:01;101195.88;;;22.25
65600;BMP280;52272;-29.642;-50.764;2022-10-16T08:25:31;101191.84;;;22.48
65600;BMP280;52272;-29.642;-50.764;2022-10-16T08:28:05;101207.16;;;22.40
65600;BMP280;52272;-29.642;-50.764;2022-10-16T08:30:36;101216.53;;;22.39
65600;BMP280;52272;-29.642;-50.764;2022-10-16T08:33:07;101217.72;;;22.49
65600;BMP280;52272;-29.642;-50.764;2022-10-16T08:35:37;101225.56;;;22.12
65600;BMP280;52272;-29.642;-50.764;2022-10-16T08:38:11;101235.44;;;22.04
65600;BMP280;52272;-29.642;-50.764;2022-10-16T08:40:42;101244.78;;;22.14
65600;BMP280;52272;-29.642;-50.764;2022-10-16T08:43:35;101244.81;;;22.03
65600;BMP280;52272;-29.642;-50.764;2022-10-16T08:48:52;101251.56;;;21.63
65600;BMP280;52272;-29.642;-50.764;2022-10-16T08:51:34;101250.78;;;21.90
65600;BMP280;52272;-29.642;-50.764;2022-10-16T08:57:49;101248.16;;;21.52
65600;BMP280;52272;-29.642;-50.764;2022-10-16T09:00:21;101239.22;;;21.79
65600;BMP280;52272;-29.642;-50.764;2022-10-16T09:05:55;101228.16;;;21.60
65600;BMP280;52272;-29.642;-50.764;2022-10-16T09:11:45;101231.56;;;20.79
65600;BMP280;52272;-29.642;-50.764;2022-10-16T09:23:48;101238.00;;;20.87
65600;BMP280;52272;-29.642;-50.764;2022-10-16T09:26:18;101239.69;;;20.84
65600;BMP280;52272;-29.642;-50.764;2022-10-16T09:28:52;101233.91;;;20.38
65600;BMP280;52272;-29.642;-50.764;2022-10-16T09:31:23;101237.34;;;20.33
65600;BMP280;52272;-29.642;-50.764;2022-10-16T09:34:00;101238.75;;;20.23
65600;BMP280;52272;-29.642;-50.764;2022-10-16T09:36:42;101237.06;;;20.31
65600;BMP280;52272;-29.642;-50.764;2022-10-16T09:39:13;101239.88;;;20.53
65600;BMP280;52272;-29.642;-50.764;2022-10-16T09:41:44;101234.19;;;19.99
65600;BMP280;52272;-29.642;-50.764;2022-10-16T09:44:24;101227.44;;;19.47
65600;BMP280;52272;-29.642;-50.764;2022-10-16T09:47:15;101220.78;;;19.17
65600;BMP280;52272;-29.642;-50.764;2022-10-16T09:49:53;101203.47;;;19.03
65600;BMP280;52272;-29.642;-50.764;2022-10-16T09:52:25;101176.19;;;18.51
65600;BMP280;52272;-29.642;-50.764;2022-10-16T09:55:00;101193.41;;;18.53
65600;BMP280;52272;-29.642;-50.764;2022-10-16T09:57:31;101180.81;;;18.50
65600;BMP280;52272;-29.642;-50.764;2022-10-16T10:00:09;101181.72;;;18.87
65600;BMP280;52272;-29.642;-50.764;2022-10-16T10:02:39;101172.44;;;18.68
65600;BMP280;52272;-29.642;-50.764;2022-10-16T10:05:20;101171.34;;;18.80
65600;BMP280;52272;-29.642;-50.764;2022-10-16T10:07:59;101158.25;;;18.48
65600;BMP280;52272;-29.642;-50.764;2022-10-16T10:10:37;101150.38;;;18.69
65600;BMP280;52272;-29.642;-50.764;2022-10-16T10:13:23;101141.31;;;18.47
65600;BMP280;52272;-29.642;-50.764;2022-10-16T10:15:54;101135.25;;;18.52
65600;BMP280;52272;-29.642;-50.764;2022-10-16T10:18:27;101133.44;;;18.44
65600;BMP280;52272;-29.642;-50.764;2022-10-16T10:21:02;101130.50;;;18.47
65600;BMP280;52272;-29.642;-50.764;2022-10-16T10:23:35;101127.09;;;18.47
65600;BMP280;52272;-29.642;-50.764;2022-10-16T10:26:20;101124.47;;;18.52
65600;BMP280;52272;-29.642;-50.764;2022-10-16T10:46:03;101124.66;;;21.51
65600;BMP280;52272;-29.642;-50.764;2022-10-16T11:00:27;101132.38;;;20.92
65600;BMP280;52272;-29.642;-50.764;2022-10-16T11:05:56;101142.06;;;22.93
65600;BMP280;52272;-29.642;-50.764;2022-10-16T11:11:37;101133.66;;;22.96
65600;BMP280;52272;-29.642;-50.764;2022-10-16T11:14:24;101141.56;;;23.24
65600;BMP280;52272;-29.642;-50.764;2022-10-16T11:17:12;101137.59;;;23.86
65600;BMP280;52272;-29.642;-50.764;2022-10-16T11:19:58;101140.28;;;24.41
65600;BMP280;52272;-29.642;-50.764;2022-10-16T11:22:32;101123.59;;;25.02
65600;BMP280;52272;-29.642;-50.764;2022-10-16T11:28:02;101140.34;;;25.57
65600;BMP280;52272;-29.642;-50.764;2022-10-16T11:31:05;101127.56;;;25.65
65600;BMP280;52272;-29.642;-50.764;2022-10-16T11:33:44;101128.75;;;25.44
65600;BMP280;52272;-29.642;-50.764;2022-10-16T11:36:25;101135.81;;;26.06
65600;BMP280;52272;-29.642;-50.764;2022-10-16T11:39:01;101132.28;;;25.65
65600;BMP280;52272;-29.642;-50.764;2022-10-16T11:41:37;101134.16;;;26.03
65600;BMP280;52272;-29.642;-50.764;2022-10-16T11:44:40;101129.63;;;26.26
65600;BMP280;52272;-29.642;-50.764;2022-10-16T11:47:26;101130.66;;;26.64
65600;BMP280;52272;-29.642;-50.764;2022-10-16T11:50:29;101125.88;;;25.62
65600;BMP280;52272;-29.642;-50.764;2022-10-16T11:56:19;101123.63;;;25.15
65600;BMP280;52272;-29.642;-50.764;2022-10-16T11:59:05;101113.09;;;25.44
65600;BMP280;52272;-29.642;-50.764;2022-10-16T12:01:46;101115.13;;;25.05
65600;BMP280;52272;-29.642;-50.764;2022-10-16T12:04:36;101118.88;;;24.89
65600;BMP280;52272;-29.642;-50.764;2022-10-16T12:07:13;101119.22;;;25.12
65600;BMP280;52272;-29.642;-50.764;2022-10-16T12:09:44;101103.47;;;24.79
65600;BMP280;52272;-29.642;-50.764;2022-10-16T12:12:26;101112.72;;;25.15
65600;BMP280;52272;-29.642;-50.764;2022-10-16T12:15:17;101114.09;;;25.67
65600;BMP280;52272;-29.642;-50.764;2022-10-16T12:18:21;101100.44;;;25.80
65600;BMP280;52272;-29.642;-50.764;2022-10-16T12:20:59;101099.56;;;26.06
65600;BMP280;52272;-29.642;-50.764;2022-10-16T12:23:47;101100.84;;;26.25
65600;BMP280;52272;-29.642;-50.764;2022-10-16T12:26:36;101093.25;;;26.11
65600;BMP280;52272;-29.642;-50.764;2022-10-16T12:35:30;101097.38;;;25.50
65600;BMP280;52272;-29.642;-50.764;2022-10-16T12:38:46;101109.47;;;25.75
65600;BMP280;52272;-29.642;-50.764;2022-10-16T12:41:28;101094.25;;;26.69
65600;BMP280;52272;-29.642;-50.764;2022-10-16T12:44:01;101093.22;;;27.57
65600;BMP280;52272;-29.642;-50.764;2022-10-16T12:46:37;101092.91;;;27.98
65600;BMP280;52272;-29.642;-50.764;2022-10-16T12:51:52;101094.94;;;29.28
65600;BMP280;52272;-29.642;-50.764;2022-10-16T12:54:42;101090.66;;;30.49
65600;BMP280;52272;-29.642;-50.764;2022-10-16T12:57:34;101082.06;;;30.79
65600;BMP280;52272;-29.642;-50.764;2022-10-16T13:11:59;101077.31;;;31.77
65600;BMP280;52272;-29.642;-50.764;2022-10-16T13:14:54;101071.84;;;32.06
65600;BMP280;52272;-29.642;-50.764;2022-10-16T13:23:08;101078.34;;;35.08
65600;BMP280;52272;-29.642;-50.764;2022-10-16T13:25:54;101071.41;;;36.02
65600;BMP280;52272;-29.642;-50.764;2022-10-16T13:28:30;101065.59;;;35.03
65600;BMP280;52272;-29.642;-50.764;2022-10-16T13:31:02;101059.09;;;34.00
65600;BMP280;52272;-29.642;-50.764;2022-10-16T13:33:36;101054.59;;;34.15
65600;BMP280;52272;-29.642;-50.764;2022-10-16T13:36:26;101058.84;;;33.75
65600;BMP280;52272;-29.642;-50.764;2022-10-16T13:44:55;101038.56;;;33.40
65600;BMP280;52272;-29.642;-50.764;2022-10-16T13:47:27;101041.84;;;34.22
65600;BMP280;52272;-29.642;-50.764;2022-10-16T13:52:33;101036.06;;;35.66
65600;BMP280;52272;-29.642;-50.764;2022-10-16T13:55:24;101035.22;;;36.00
65600;BMP280;52272;-29.642;-50.764;2022-10-16T13:58:08;101030.31;;;34.69
65600;BMP280;52272;-29.642;-50.764;2022-10-16T14:00:38;101038.31;;;35.45
65600;BMP280;52272;-29.642;-50.764;2022-10-16T14:03:16;101028.44;;;35.42
65600;BMP280;52272;-29.642;-50.764;2022-10-16T14:05:52;101020.84;;;35.43
65600;BMP280;52272;-29.642;-50.764;2022-10-16T14:08:25;101022.69;;;36.37
65600;BMP280;52272;-29.642;-50.764;2022-10-16T14:10:59;101012.41;;;36.02
65600;BMP280;52272;-29.642;-50.764;2022-10-16T14:13:44;101011.50;;;35.25
65600;BMP280;52272;-29.642;-50.764;2022-10-16T14:16:27;101009.19;;;35.33
65600;BMP280;52272;-29.642;-50.764;2022-10-16T14:19:00;101005.94;;;35.72
65600;BMP280;52272;-29.642;-50.764;2022-10-16T14:21:31;101013.00;;;37.32
65600;BMP280;52272;-29.642;-50.764;2022-10-16T14:24:11;101010.03;;;38.47
65600;BMP280;52272;-29.642;-50.764;2022-10-16T14:26:43;101017.00;;;38.79
65600;BMP280;52272;-29.642;-50.764;2022-10-16T14:29:19;101006.75;;;38.84
65600;BMP280;52272;-29.642;-50.764;2022-10-16T14:31:59;101004.91;;;38.42
65600;BMP280;52272;-29.642;-50.764;2022-10-16T14:34:34;100990.91;;;38.09
65600;BMP280;52272;-29.642;-50.764;2022-10-16T14:37:24;100976.28;;;35.63
65600;BMP280;52272;-29.642;-50.764;2022-10-16T14:40:03;100977.09;;;34.71
65600;BMP280;52272;-29.642;-50.764;2022-10-16T14:42:34;100981.84;;;37.20
65600;BMP280;52272;-29.642;-50.764;2022-10-16T14:45:08;100981.06;;;37.91
65600;BMP280;52272;-29.642;-50.764;2022-10-16T14:47:57;100978.97;;;37.76
65600;BMP280;52272;-29.642;-50.764;2022-10-16T14:50:28;100977.53;;;37.75
65600;BMP280;52272;-29.642;-50.764;2022-10-16T14:52:58;100968.00;;;36.40
65600;BMP280;52272;-29.642;-50.764;2022-10-16T14:55:29;100964.63;;;37.53
65600;BMP280;52272;-29.642;-50.764;2022-10-16T14:57:59;100977.53;;;38.36
65600;BMP280;52272;-29.642;-50.764;2022-10-16T15:00:29;100962.53;;;38.76
65600;BMP280;52272;-29.642;-50.764;2022-10-16T15:03:00;100960.09;;;38.84
65600;BMP280;52272;-29.642;-50.764;2022-10-16T15:05:32;100954.31;;;39.13
65600;BMP280;52272;-29.642;-50.764;2022-10-16T15:08:02;100956.72;;;38.37
65600;BMP280;52272;-29.642;-50.764;2022-10-16T15:10:40;100953.34;;;37.20
65600;BMP280;52272;-29.642;-50.764;2022-10-16T15:13:12;100939.16;;;39.18
65600;BMP280;52272;-29.642;-50.764;2022-10-16T15:15:45;100953.94;;;39.40
65600;BMP280;52272;-29.642;-50.764;2022-10-16T15:18:15;100951.78;;;39.73
65600;BMP280;52272;-29.642;-50.764;2022-10-16T15:20:50;100949.75;;;39.75
65600;BMP280;52272;-29.642;-50.764;2022-10-16T15:23:22;100946.00;;;39.50
65600;BMP280;52272;-29.642;-50.764;2022-10-16T15:25:55;100938.22;;;39.29
65600;BMP280;52272;-29.642;-50.764;2022-10-16T15:28:27;100945.34;;;38.49
65600;BMP280;52272;-29.642;-50.764;2022-10-16T15:30:57;100935.97;;;38.91
65600;BMP280;52272;-29.642;-50.764;2022-10-16T15:33:28;100924.97;;;37.52
65600;BMP280;52272;-29.642;-50.764;2022-10-16T15:36:07;100926.59;;;37.13
65600;BMP280;52272;-29.642;-50.764;2022-10-16T15:38:37;100933.44;;;36.70
65600;BMP280;52272;-29.642;-50.764;2022-10-16T15:41:07;100921.44;;;36.52
65600;BMP280;52272;-29.642;-50.764;2022-10-16T15:43:38;100918.34;;;36.73
65600;BMP280;52272;-29.642;-50.764;2022-10-16T15:46:11;100915.34;;;36.82
65600;BMP280;52272;-29.642;-50.764;2022-10-16T15:48:44;100914.13;;;36.45
65600;BMP280;52272;-29.642;-50.764;2022-10-16T15:51:14;100915.66;;;36.75
65600;BMP280;52272;-29.642;-50.764;2022-10-16T15:53:44;100911.41;;;35.93
65600;BMP280;52272;-29.642;-50.764;2022-10-16T15:56:16;100908.28;;;35.13
65600;BMP280;52272;-29.642;-50.764;2022-10-16T15:58:46;100896.84;;;35.43